sensor_id;sensor_type;location;lat;lon;timestamp;pressure;altitude;pressure_sealevel;temperature;humidity
59272;BME280;45043;51.068;7.026;2023-03-14T00:02:28;98038.59;;;8.05;56.97
59272;BME280;45043;51.068;7.026;2023-03-14T00:05:28;98022.38;;;8.13;56.61
59272;BME280;45043;51.068;7.026;2023-03-14T00:08:29;98022.38;;;8.13;56.70
59272;BME280;45043;51.068;7.026;2023-03-14T00:11:29;98019.72;;;8.13;56.62
59272;BME280;45043;51.068;7.026;2023-03-14T00:14:31;98016.56;;;8.16;56.36
59272;BME280;45043;51.068;7.026;2023-03-14T00:17:31;98037.72;;;8.16;56.37
59272;BME280;45043;51.068;7.026;2023-03-14T00:20:32;98059.13;;;8.15;56.05
59272;BME280;45043;51.068;7.026;2023-03-14T00:23:33;98075.72;;;8.10;56.26
59272;BME280;45043;51.068;7.026;2023-03-14T00:26:34;98079.97;;;8.11;56.09
59272;BME280;45043;51.068;7.026;2023-03-14T00:29:35;98081.81;;;8.11;56.19
59272;BME280;45043;51.068;7.026;2023-03-14T00:32:36;98078.59;;;8.08;56.33
59272;BME280;45043;51.068;7.026;2023-03-14T00:35:36;98090.00;;;8.09;56.14
59272;BME280;45043;51.068;7.026;2023-03-14T00:38:38;98073.28;;;8.08;56.10
59272;BME280;45043;51.068;7.026;2023-03-14T00:41:39;98063.56;;;8.09;56.19
59272;BME280;45043;51.068;7.026;2023-03-14T00:44:39;98055.63;;;8.09;56.05
59272;BME280;45043;51.068;7.026;2023-03-14T00:47:41;98053.44;;;8.06;56.04
59272;BME280;45043;51.068;7.026;2023-03-14T00:50:45;98047.56;;;8.04;55.75
59272;BME280;45043;51.068;7.026;2023-03-14T00:53:49;98057.94;;;8.05;56.07
59272;BME280;45043;51.068;7.026;2023-03-14T00:56:49;98053.13;;;8.02;56.12
59272;BME280;45043;51.068;7.026;2023-03-14T00:59:50;98055.75;;;8.02;56.07
59272;BME280;45043;51.068;7.026;2023-03-14T01:02:51;98078.19;;;8.00;56.30
59272;BME280;45043;51.068;7.026;2023-03-14T01:05:51;98186.53;;;7.83;57.55
59272;BME280;45043;51.068;7.026;2023-03-14T01:08:52;98161.09;;;7.53;58.56
59272;BME280;45043;51.068;7.026;2023-03-14T01:11:54;98150.22;;;7.26;60.06
59272;BME280;45043;51.068;7.026;2023-03-14T01:14:55;98140.50;;;7.03;60.79
59272;BME280;45043;51.068;7.026;2023-03-14T01:17:55;98136.78;;;6.69;61.94
59272;BME280;45043;51.068;7.026;2023-03-14T01:20:57;98149.91;;;6.46;62.91
59272;BME280;45043;51.068;7.026;2023-03-14T01:23:58;98146.66;;;6.20;64.11
59272;BME280;45043;51.068;7.026;2023-03-14T01:27:00;98121.03;;;5.97;65.52
59272;BME280;45043;51.068;7.026;2023-03-14T01:30:03;98126.03;;;5.87;66.18
59272;BME280;45043;51.068;7.026;2023-03-14T01:33:04;98091.88;;;5.80;66.95
59272;BME280;45043;51.068;7.026;2023-03-14T01:36:05;98067.13;;;5.81;67.88
59272;BME280;45043;51.068;7.026;2023-03-14T01:39:06;98071.94;;;5.84;67.53
59272;BME280;45043;51.068;7.026;2023-03-14T01:42:09;98083.09;;;5.86;67.53
59272;BME280;45043;51.068;7.026;2023-03-14T01:52:36;98074.50;;;5.91;67.58
59272;BME280;45043;51.068;7.026;2023-03-14T01:55:39;98065.47;;;5.99;67.65
59272;BME280;45043;51.068;7.026;2023-03-14T01:58:41;98069.03;;;6.04;67.58
59272;BME280;45043;51.068;7.026;2023-03-14T02:01:46;98062.94;;;6.04;67.55
59272;BME280;45043;51.068;7.026;2023-03-14T02:04:47;98063.88;;;5.98;67.62
59272;BME280;45043;51.068;7.026;2023-03-14T02:07:53;98052.28;;;5.99;68.08
59272;BME280;45043;51.068;7.026;2023-03-14T02:10:58;98056.06;;;6.03;68.20
59272;BME280;45043;51.068;7.026;2023-03-14T02:14:20;98059.50;;;6.03;68.10
59272;BME280;45043;51.068;7.026;2023-03-14T02:17:49;98050.81;;;6.03;68.30
59272;BME280;45043;51.068;7.026;2023-03-14T02:24:22;98062.59;;;6.00;68.05
59272;BME280;45043;51.068;7.026;2023-03-14T02:27:31;98059.75;;;6.02;67.69
59272;BME280;45043;51.068;7.026;2023-03-14T02:30:33;98069.03;;;6.04;67.45
59272;BME280;45043;51.068;7.026;2023-03-14T02:33:37;98064.69;;;6.10;67.18
59272;BME280;45043;51.068;7.026;2023-03-14T02:36:38;98058.38;;;6.11;67.45
59272;BME280;45043;51.068;7.026;2023-03-14T02:39:42;98060.22;;;6.10;67.10
59272;BME280;45043;51.068;7.026;2023-03-14T02:42:44;98051.03;;;6.01;67.12
59272;BME280;45043;51.068;7.026;2023-03-14T02:45:47;98046.78;;;6.00;67.08
59272;BME280;45043;51.068;7.026;2023-03-14T02:49:05;98049.66;;;5.99;66.91
59272;BME280;45043;51.068;7.026;2023-03-14T02:52:07;98043.00;;;5.96;67.44
59272;BME280;45043;51.068;7.026;2023-03-14T02:55:08;98044.25;;;5.94;67.33
59272;BME280;45043;51.068;7.026;2023-03-14T02:58:10;98046.88;;;5.94;67.06
59272;BME280;45043;51.068;7.026;2023-03-14T03:01:11;98041.41;;;5.95;67.12
59272;BME280;45043;51.068;7.026;2023-03-14T03:04:12;98032.59;;;6.01;67.46
59272;BME280;45043;51.068;7.026;2023-03-14T03:07:12;98032.03;;;6.11;67.00
59272;BME280;45043;51.068;7.026;2023-03-14T03:10:13;98024.69;;;6.13;66.71
59272;BME280;45043;51.068;7.026;2023-03-14T03:13:14;98015.31;;;6.17;66.87
59272;BME280;45043;51.068;7.026;2023-03-14T03:16:16;98017.94;;;6.17;66.99
59272;BME280;45043;51.068;7.026;2023-03-14T03:19:17;98009.91;;;6.12;67.25
59272;BME280;45043;51.068;7.026;2023-03-14T03:22:18;98006.25;;;6.13;67.29
59272;BME280;45043;51.068;7.026;2023-03-14T03:25:18;97997.53;;;6.12;67.23
59272;BME280;45043;51.068;7.026;2023-03-14T03:28:20;97993.53;;;6.10;67.55
59272;BME280;45043;51.068;7.026;2023-03-14T03:31:21;97994.22;;;6.05;67.71
59272;BME280;45043;51.068;7.026;2023-03-14T03:34:22;97983.88;;;6.04;67.89
59272;BME280;45043;51.068;7.026;2023-03-14T03:37:25;97986.06;;;6.07;67.93
59272;BME280;45043;51.068;7.026;2023-03-14T03:40:26;97987.09;;;6.06;67.95
59272;BME280;45043;51.068;7.026;2023-03-14T03:43:27;97985.25;;;6.06;68.03
59272;BME280;45043;51.068;7.026;2023-03-14T03:46:28;97989.84;;;6.11;68.01
59272;BME280;45043;51.068;7.026;2023-03-14T03:49:32;97990.44;;;6.13;67.87
59272;BME280;45043;51.068;7.026;2023-03-14T03:52:33;97989.63;;;6.12;67.67
59272;BME280;45043;51.068;7.026;2023-03-14T03:55:34;97976.56;;;6.06;67.81
59272;BME280;45043;51.068;7.026;2023-03-14T03:58:34;97987.22;;;6.11;67.79
59272;BME280;45043;51.068;7.026;2023-03-14T04:01:36;97979.91;;;6.13;67.77
59272;BME280;45043;51.068;7.026;2023-03-14T04:04:37;97978.06;;;6.13;67.89
59272;BME280;45043;51.068;7.026;2023-03-14T04:07:38;97970.34;;;6.12;67.91
59272;BME280;45043;51.068;7.026;2023-03-14T04:10:40;97969.91;;;6.15;68.05
59272;BME280;45043;51.068;7.026;2023-03-14T04:13:54;97980.00;;;6.18;67.88
59272;BME280;45043;51.068;7.026;2023-03-14T04:16:54;97978.41;;;6.17;67.62
59272;BME280;45043;51.068;7.026;2023-03-14T04:19:55;97968.06;;;6.15;68.04
59272;BME280;45043;51.068;7.026;2023-03-14T04:22:59;97967.16;;;6.10;67.66
59272;BME280;45043;51.068;7.026;2023-03-14T04:26:01;97966.38;;;6.09;67.52
59272;BME280;45043;51.068;7.026;2023-03-14T04:29:04;97958.66;;;6.08;67.76
59272;BME280;45043;51.068;7.026;2023-03-14T04:32:05;97959.72;;;6.07;67.85
59272;BME280;45043;51.068;7.026;2023-03-14T04:35:06;97965.44;;;6.04;68.02
59272;BME280;45043;51.068;7.026;2023-03-14T04:38:07;97953.63;;;5.95;67.96
59272;BME280;45043;51.068;7.026;2023-03-14T04:41:08;97954.78;;;5.99;68.25
59272;BME280;45043;51.068;7.026;2023-03-14T04:44:10;97953.97;;;5.98;68.23
59272;BME280;45043;51.068;7.026;2023-03-14T04:47:10;97938.72;;;5.88;68.26
59272;BME280;45043;51.068;7.026;2023-03-14T04:50:12;97937.47;;;5.91;68.51
59272;BME280;45043;51.068;7.026;2023-03-14T04:53:14;97933.47;;;5.88;68.60
59272;BME280;45043;51.068;7.026;2023-03-14T04:56:17;97933.34;;;5.83;68.71
59272;BME280;45043;51.068;7.026;2023-03-14T04:59:17;97924.84;;;5.81;68.74
59272;BME280;45043;51.068;7.026;2023-03-14T05:02:18;97919.38;;;5.83;69.01
59272;BME280;45043;51.068;7.026;2023-03-14T05:05:37;97911.69;;;5.81;69.18
59272;BME280;45043;51.068;7.026;2023-03-14T05:08:47;97911.69;;;5.81;69.15
59272;BME280;45043;51.068;7.026;2023-03-14T05:12:08;97905.03;;;5.79;68.88
59272;BME280;45043;51.068;7.026;2023-03-14T05:15:27;97900.00;;;5.77;69.39
59272;BME280;45043;51.068;7.026;2023-03-14T05:18:53;97907.81;;;5.84;69.69
59272;BME280;45043;51.068;7.026;2023-03-14T05:22:13;97901.94;;;5.94;69.65
59272;BME280;45043;51.068;7.026;2023-03-14T05:25:43;97892.00;;;5.96;69.64
59272;BME280;45043;51.068;7.026;2023-03-14T05:29:10;97886.47;;;5.97;69.48
59272;BME280;45043;51.068;7.026;2023-03-14T05:32:19;97893.72;;;6.02;69.40
59272;BME280;45043;51.068;7.026;2023-03-14T05:35:29;97879.25;;;6.04;69.20
59272;BME280;45043;51.068;7.026;2023-03-14T05:38:46;97890.13;;;6.08;69.10
59272;BME280;45043;51.068;7.026;2023-03-14T05:42:05;97888.09;;;6.10;68.87
59272;BME280;45043;51.068;7.026;2023-03-14T05:45:29;97883.78;;;6.44;68.75
59272;BME280;45043;51.068;7.026;2023-03-14T05:48:58;97876.94;;;6.83;67.79
59272;BME280;45043;51.068;7.026;2023-03-14T05:52:13;97874.84;;;7.14;66.53
59272;BME280;45043;51.068;7.026;2023-03-14T05:55:31;97881.63;;;7.39;65.44
59272;BME280;45043;51.068;7.026;2023-03-14T05:58:50;97863.59;;;7.52;64.35
59272;BME280;45043;51.068;7.026;2023-03-14T06:02:02;97876.25;;;7.67;63.39
59272;BME280;45043;51.068;7.026;2023-03-14T06:05:12;97881.22;;;7.80;62.53
59272;BME280;45043;51.068;7.026;2023-03-14T06:08:13;97885.03;;;7.90;62.02
59272;BME280;45043;51.068;7.026;2023-03-14T06:11:14;97875.56;;;7.94;61.50
59272;BME280;45043;51.068;7.026;2023-03-14T06:14:15;97880.94;;;7.99;61.16
59272;BME280;45043;51.068;7.026;2023-03-14T06:17:19;97879.56;;;7.96;61.00
59272;BME280;45043;51.068;7.026;2023-03-14T06:20:26;97877.03;;;7.84;61.06
59272;BME280;45043;51.068;7.026;2023-03-14T06:23:27;97876.47;;;7.82;61.36
59272;BME280;45043;51.068;7.026;2023-03-14T06:26:30;97876.88;;;7.74;61.55
59272;BME280;45043;51.068;7.026;2023-03-14T06:29:31;97878.16;;;7.72;61.42
59272;BME280;45043;51.068;7.026;2023-03-14T06:32:32;97877.28;;;7.66;61.76
59272;BME280;45043;51.068;7.026;2023-03-14T06:35:36;97870.88;;;7.62;61.95
59272;BME280;45043;51.068;7.026;2023-03-14T06:38:37;97873.06;;;7.65;61.90
59272;BME280;45043;51.068;7.026;2023-03-14T06:41:38;97879.13;;;7.66;61.94
59272;BME280;45043;51.068;7.026;2023-03-14T06:44:38;97880.72;;;7.67;61.75
59272;BME280;45043;51.068;7.026;2023-03-14T06:47:39;97888.44;;;7.68;61.44
59272;BME280;45043;51.068;7.026;2023-03-14T06:50:41;97873.13;;;7.70;61.25
59272;BME280;45043;51.068;7.026;2023-03-14T06:53:49;97886.59;;;7.69;61.37
59272;BME280;45043;51.068;7.026;2023-03-14T06:56:56;97885.38;;;7.76;61.12
59272;BME280;45043;51.068;7.026;2023-03-14T06:59:56;97887.88;;;7.83;60.84
59272;BME280;45043;51.068;7.026;2023-03-14T07:02:57;97883.91;;;7.86;60.70
59272;BME280;45043;51.068;7.026;2023-03-14T07:06:07;97882.47;;;7.95;60.61
59272;BME280;45043;51.068;7.026;2023-03-14T07:09:07;97887.41;;;8.08;60.55
59272;BME280;45043;51.068;7.026;2023-03-14T07:12:15;97888.19;;;8.08;60.17
59272;BME280;45043;51.068;7.026;2023-03-14T07:15:16;97896.38;;;8.07;59.83
59272;BME280;45043;51.068;7.026;2023-03-14T07:18:17;97903.84;;;8.10;60.01
59272;BME280;45043;51.068;7.026;2023-03-14T07:21:18;97901.50;;;8.14;59.87
59272;BME280;45043;51.068;7.026;2023-03-14T07:24:19;97900.16;;;8.11;59.56
59272;BME280;45043;51.068;7.026;2023-03-14T07:27:19;97908.72;;;8.18;59.35
59272;BME280;45043;51.068;7.026;2023-03-14T07:30:22;97907.97;;;8.23;59.53
59272;BME280;45043;51.068;7.026;2023-03-14T07:33:24;97913.69;;;8.31;59.31
59272;BME280;45043;51.068;7.026;2023-03-14T07:36:24;97912.47;;;8.39;59.24
59272;BME280;45043;51.068;7.026;2023-03-14T07:39:25;97928.56;;;8.38;59.07
59272;BME280;45043;51.068;7.026;2023-03-14T07:42:54;97933.22;;;8.30;59.07
59272;BME280;45043;51.068;7.026;2023-03-14T07:46:11;97933.09;;;8.20;59.32
59272;BME280;45043;51.068;7.026;2023-03-14T07:49:11;97932.50;;;8.18;59.00
59272;BME280;45043;51.068;7.026;2023-03-14T07:52:12;97922.66;;;8.14;59.51
59272;BME280;45043;51.068;7.026;2023-03-14T07:55:12;97939.81;;;8.11;59.08
59272;BME280;45043;51.068;7.026;2023-03-14T07:58:14;97942.72;;;8.10;59.73
59272;BME280;45043;51.068;7.026;2023-03-14T08:01:14;97937.09;;;8.06;60.14
59272;BME280;45043;51.068;7.026;2023-03-14T08:04:15;97933.41;;;8.07;60.29
59272;BME280;45043;51.068;7.026;2023-03-14T08:07:16;97943.50;;;8.10;60.37
59272;BME280;45043;51.068;7.026;2023-03-14T08:10:17;97946.16;;;8.10;60.22
59272;BME280;45043;51.068;7.026;2023-03-14T08:13:23;97945.03;;;8.06;60.41
59272;BME280;45043;51.068;7.026;2023-03-14T08:16:25;97955.69;;;8.11;60.60
59272;BME280;45043;51.068;7.026;2023-03-14T08:19:26;97942.78;;;8.15;60.69
59272;BME280;45043;51.068;7.026;2023-03-14T08:22:26;97945.25;;;8.21;60.83
59272;BME280;45043;51.068;7.026;2023-03-14T08:25:28;97951.69;;;8.25;60.63
59272;BME280;45043;51.068;7.026;2023-03-14T08:28:28;97942.03;;;8.19;60.64
59272;BME280;45043;51.068;7.026;2023-03-14T08:31:31;97948.13;;;8.20;60.89
59272;BME280;45043;51.068;7.026;2023-03-14T08:34:33;97945.34;;;8.26;61.10
59272;BME280;45043;51.068;7.026;2023-03-14T08:37:34;97950.41;;;8.28;61.02
59272;BME280;45043;51.068;7.026;2023-03-14T08:40:35;97963.69;;;8.33;61.10
59272;BME280;45043;51.068;7.026;2023-03-14T08:43:35;97951.91;;;8.41;60.99
59272;BME280;45043;51.068;7.026;2023-03-14T08:46:36;97943.97;;;8.41;60.92
59272;BME280;45043;51.068;7.026;2023-03-14T08:49:36;97969.78;;;8.50;61.17
59272;BME280;45043;51.068;7.026;2023-03-14T08:52:38;97975.06;;;8.50;61.41
59272;BME280;45043;51.068;7.026;2023-03-14T08:55:40;97971.53;;;8.45;62.04
59272;BME280;45043;51.068;7.026;2023-03-14T08:58:40;97981.47;;;8.38;62.50
59272;BME280;45043;51.068;7.026;2023-03-14T09:01:41;97968.19;;;8.32;62.46
59272;BME280;45043;51.068;7.026;2023-03-14T09:04:42;97985.59;;;8.28;63.25
59272;BME280;45043;51.068;7.026;2023-03-14T09:07:42;97985.50;;;8.23;63.33
59272;BME280;45043;51.068;7.026;2023-03-14T09:10:45;97987.13;;;8.24;63.81
59272;BME280;45043;51.068;7.026;2023-03-14T09:13:46;97973.78;;;8.19;63.95
59272;BME280;45043;51.068;7.026;2023-03-14T09:16:46;97973.78;;;8.19;63.98
59272;BME280;45043;51.068;7.026;2023-03-14T09:19:47;97995.97;;;8.18;64.11
59272;BME280;45043;51.068;7.026;2023-03-14T09:22:47;98026.59;;;8.14;64.34
59272;BME280;45043;51.068;7.026;2023-03-14T09:25:48;98012.72;;;8.07;64.20
59272;BME280;45043;51.068;7.026;2023-03-14T09:28:48;98010.56;;;8.04;64.25
59272;BME280;45043;51.068;7.026;2023-03-14T09:31:49;98014.81;;;8.05;64.04
59272;BME280;45043;51.068;7.026;2023-03-14T09:34:49;98042.06;;;8.05;64.20
59272;BME280;45043;51.068;7.026;2023-03-14T09:37:50;98046.13;;;7.96;64.15
59272;BME280;45043;51.068;7.026;2023-03-14T09:40:50;98092.88;;;7.79;64.63
59272;BME280;45043;51.068;7.026;2023-03-14T09:44:00;98205.03;;;7.71;64.77
59272;BME280;45043;51.068;7.026;2023-03-14T09:47:05;98157.09;;;7.39;63.12
59272;BME280;45043;51.068;7.026;2023-03-14T09:50:13;98191.78;;;7.07;62.84
59272;BME280;45043;51.068;7.026;2023-03-14T09:53:18;98194.94;;;6.74;62.52
59272;BME280;45043;51.068;7.026;2023-03-14T09:59:20;98190.97;;;6.42;63.14
59272;BME280;45043;51.068;7.026;2023-03-14T10:02:27;98200.56;;;6.24;64.14
59272;BME280;45043;51.068;7.026;2023-03-14T10:05:29;98219.66;;;6.20;64.07
59272;BME280;45043;51.068;7.026;2023-03-14T10:08:29;98226.78;;;6.01;64.42
59272;BME280;45043;51.068;7.026;2023-03-14T10:11:30;98264.16;;;5.98;64.65
59272;BME280;45043;51.068;7.026;2023-03-14T10:14:36;98253.16;;;5.82;64.04
59272;BME280;45043;51.068;7.026;2023-03-14T10:17:42;98302.63;;;5.62;64.70
59272;BME280;45043;51.068;7.026;2023-03-14T10:20:48;98270.50;;;5.53;65.26
59272;BME280;45043;51.068;7.026;2023-03-14T10:23:48;98311.66;;;5.48;65.51
59272;BME280;45043;51.068;7.026;2023-03-14T10:26:52;98335.97;;;5.50;64.85
59272;BME280;45043;51.068;7.026;2023-03-14T10:29:58;98308.13;;;5.35;65.68
59272;BME280;45043;51.068;7.026;2023-03-14T10:33:08;98331.41;;;5.38;66.22
59272;BME280;45043;51.068;7.026;2023-03-14T10:36:20;98373.72;;;5.37;65.94
59272;BME280;45043;51.068;7.026;2023-03-14T10:39:42;98351.34;;;5.21;66.27
59272;BME280;45043;51.068;7.026;2023-03-14T10:42:45;98385.44;;;5.09;66.66
59272;BME280;45043;51.068;7.026;2023-03-14T10:45:54;98382.78;;;5.16;67.11
59272;BME280;45043;51.068;7.026;2023-03-14T10:48:57;98400.13;;;5.24;66.98
59272;BME280;45043;51.068;7.026;2023-03-14T10:52:13;98397.31;;;5.25;66.37
59272;BME280;45043;51.068;7.026;2023-03-14T10:55:14;98395.06;;;5.29;66.50
59272;BME280;45043;51.068;7.026;2023-03-14T11:01:27;98440.28;;;5.51;66.37
59272;BME280;45043;51.068;7.026;2023-03-14T11:08:12;98438.84;;;5.55;65.91
59272;BME280;45043;51.068;7.026;2023-03-14T11:11:29;98479.53;;;5.59;65.52
59272;BME280;45043;51.068;7.026;2023-03-14T11:14:36;98478.84;;;5.70;65.72
59272;BME280;45043;51.068;7.026;2023-03-14T11:18:09;98441.75;;;5.72;65.80
59272;BME280;45043;51.068;7.026;2023-03-14T11:21:26;98474.00;;;5.67;64.90
59272;BME280;45043;51.068;7.026;2023-03-14T11:28:14;98468.59;;;5.87;64.05
59272;BME280;45043;51.068;7.026;2023-03-14T11:31:27;98498.63;;;5.03;66.14
59272;BME280;45043;51.068;7.026;2023-03-14T11:34:35;98544.44;;;4.75;67.39
59272;BME280;45043;51.068;7.026;2023-03-14T11:37:46;98531.97;;;4.37;67.60
59272;BME280;45043;51.068;7.026;2023-03-14T11:40:49;98532.56;;;4.19;68.24
59272;BME280;45043;51.068;7.026;2023-03-14T11:44:02;98519.84;;;3.96;67.77
59272;BME280;45043;51.068;7.026;2023-03-14T11:50:32;98566.28;;;3.69;68.94
59272;BME280;45043;51.068;7.026;2023-03-14T11:53:47;98559.81;;;3.65;69.23
59272;BME280;45043;51.068;7.026;2023-03-14T11:57:05;98570.66;;;3.49;69.27
59272;BME280;45043;51.068;7.026;2023-03-14T12:00:19;98607.28;;;3.29;68.72
59272;BME280;45043;51.068;7.026;2023-03-14T12:03:49;98572.50;;;3.14;68.50
59272;BME280;45043;51.068;7.026;2023-03-14T12:06:53;98605.97;;;3.05;68.43
59272;BME280;45043;51.068;7.026;2023-03-14T12:09:55;98618.88;;;3.07;68.66
59272;BME280;45043;51.068;7.026;2023-03-14T12:12:57;98610.00;;;3.08;68.54
59272;BME280;45043;51.068;7.026;2023-03-14T12:16:00;98651.84;;;3.16;68.45
59272;BME280;45043;51.068;7.026;2023-03-14T12:19:24;98678.47;;;3.13;67.39
59272;BME280;45043;51.068;7.026;2023-03-14T12:22:27;98702.47;;;3.10;67.09
59272;BME280;45043;51.068;7.026;2023-03-14T12:25:30;98669.38;;;3.09;66.94
59272;BME280;45043;51.068;7.026;2023-03-14T12:28:32;98709.75;;;3.14;67.01
59272;BME280;45043;51.068;7.026;2023-03-14T12:31:37;98687.56;;;3.17;66.31
59272;BME280;45043;51.068;7.026;2023-03-14T12:34:42;98710.13;;;3.11;65.31
59272;BME280;45043;51.068;7.026;2023-03-14T12:37:47;98742.41;;;3.12;65.60
59272;BME280;45043;51.068;7.026;2023-03-14T12:43:54;98750.81;;;3.00;64.83
59272;BME280;45043;51.068;7.026;2023-03-14T12:46:59;98771.78;;;3.00;64.78
59272;BME280;45043;51.068;7.026;2023-03-14T12:50:13;98779.34;;;3.10;64.76
59272;BME280;45043;51.068;7.026;2023-03-14T12:56:50;98795.75;;;3.19;63.77
59272;BME280;45043;51.068;7.026;2023-03-14T13:00:17;98803.13;;;3.30;63.39
59272;BME280;45043;51.068;7.026;2023-03-14T13:03:21;98819.75;;;3.37;62.32
59272;BME280;45043;51.068;7.026;2023-03-14T13:09:56;98818.13;;;3.36;61.67
59272;BME280;45043;51.068;7.026;2023-03-14T13:13:14;98846.69;;;3.46;61.72
59272;BME280;45043;51.068;7.026;2023-03-14T13:16:18;98833.66;;;3.59;61.52
59272;BME280;45043;51.068;7.026;2023-03-14T13:19:24;98835.31;;;3.67;60.93
59272;BME280;45043;51.068;7.026;2023-03-14T13:22:28;98849.47;;;3.66;61.09
59272;BME280;45043;51.068;7.026;2023-03-14T13:25:34;98861.59;;;3.67;60.90
59272;BME280;45043;51.068;7.026;2023-03-14T13:28:35;98870.84;;;3.63;61.35
59272;BME280;45043;51.068;7.026;2023-03-14T13:31:36;98868.38;;;3.55;61.29
59272;BME280;45043;51.068;7.026;2023-03-14T13:34:37;98936.00;;;3.31;61.07
59272;BME280;45043;51.068;7.026;2023-03-14T13:37:39;98923.72;;;3.17;61.20
59272;BME280;45043;51.068;7.026;2023-03-14T13:40:43;98918.16;;;3.05;61.39
59272;BME280;45043;51.068;7.026;2023-03-14T13:43:44;98923.41;;;3.05;62.23
59272;BME280;45043;51.068;7.026;2023-03-14T13:46:44;98888.22;;;2.99;62.12
59272;BME280;45043;51.068;7.026;2023-03-14T13:49:45;98920.44;;;2.93;62.89
59272;BME280;45043;51.068;7.026;2023-03-14T13:52:55;98967.41;;;2.88;62.65
59272;BME280;45043;51.068;7.026;2023-03-14T13:55:56;98937.19;;;2.92;62.45
59272;BME280;45043;51.068;7.026;2023-03-14T13:58:57;98943.47;;;3.13;62.50
59272;BME280;45043;51.068;7.026;2023-03-14T14:02:04;98949.03;;;3.61;62.39
59272;BME280;45043;51.068;7.026;2023-03-14T14:05:11;98967.13;;;3.77;60.51
59272;BME280;45043;51.068;7.026;2023-03-14T14:08:12;98978.78;;;3.68;60.83
59272;BME280;45043;51.068;7.026;2023-03-14T14:11:41;98977.47;;;3.57;60.33
59272;BME280;45043;51.068;7.026;2023-03-14T14:14:48;98984.41;;;3.65;59.35
59272;BME280;45043;51.068;7.026;2023-03-14T14:17:56;98995.34;;;3.68;58.09
59272;BME280;45043;51.068;7.026;2023-03-14T14:20:58;99014.09;;;3.65;57.84
59272;BME280;45043;51.068;7.026;2023-03-14T14:23:59;99019.88;;;3.76;58.03
59272;BME280;45043;51.068;7.026;2023-03-14T14:27:09;99032.88;;;3.84;57.67
59272;BME280;45043;51.068;7.026;2023-03-14T14:33:20;99040.47;;;4.00;57.64
59272;BME280;45043;51.068;7.026;2023-03-14T14:36:29;99051.19;;;3.99;56.97
59272;BME280;45043;51.068;7.026;2023-03-14T14:39:31;99058.88;;;3.79;56.62
59272;BME280;45043;51.068;7.026;2023-03-14T14:42:31;99064.44;;;3.69;56.78
59272;BME280;45043;51.068;7.026;2023-03-14T14:45:34;99084.72;;;3.75;56.89
59272;BME280;45043;51.068;7.026;2023-03-14T14:48:38;99079.22;;;3.91;57.04
59272;BME280;45043;51.068;7.026;2023-03-14T14:51:42;99103.81;;;4.05;56.53
59272;BME280;45043;51.068;7.026;2023-03-14T14:54:53;99118.88;;;3.96;56.57
59272;BME280;45043;51.068;7.026;2023-03-14T14:57:56;99126.13;;;3.94;57.00
59272;BME280;45043;51.068;7.026;2023-03-14T15:01:15;99123.25;;;3.89;56.41
59272;BME280;45043;51.068;7.026;2023-03-14T15:04:17;99138.19;;;3.89;56.75
59272;BME280;45043;51.068;7.026;2023-03-14T15:07:17;99128.88;;;3.86;56.99
59272;BME280;45043;51.068;7.026;2023-03-14T15:10:20;99148.91;;;3.87;56.83
59272;BME280;45043;51.068;7.026;2023-03-14T15:13:21;99146.16;;;3.95;56.39
59272;BME280;45043;51.068;7.026;2023-03-14T15:16:25;99146.84;;;4.04;56.37
59272;BME280;45043;51.068;7.026;2023-03-14T15:19:27;99155.44;;;4.13;55.77
59272;BME280;45043;51.068;7.026;2023-03-14T15:22:30;99164.00;;;4.21;55.63
59272;BME280;45043;51.068;7.026;2023-03-14T15:25:30;99172.56;;;4.30;55.40
59272;BME280;45043;51.068;7.026;2023-03-14T15:28:30;99165.56;;;4.37;55.10
59272;BME280;45043;51.068;7.026;2023-03-14T15:31:31;99184.13;;;4.51;54.80
59272;BME280;45043;51.068;7.026;2023-03-14T15:34:31;99200.25;;;4.48;54.31
59272;BME280;45043;51.068;7.026;2023-03-14T15:37:32;99215.91;;;4.34;52.20
59272;BME280;45043;51.068;7.026;2023-03-14T15:40:32;99220.38;;;4.19;51.28
59272;BME280;45043;51.068;7.026;2023-03-14T15:43:33;99230.50;;;4.01;46.76
59272;BME280;45043;51.068;7.026;2023-03-14T15:46:33;99230.88;;;3.98;45.36
59272;BME280;45043;51.068;7.026;2023-03-14T15:49:33;99218.72;;;3.96;44.56
59272;BME280;45043;51.068;7.026;2023-03-14T15:52:34;99262.41;;;3.98;43.16
59272;BME280;45043;51.068;7.026;2023-03-14T15:55:35;99252.38;;;3.86;43.53
59272;BME280;45043;51.068;7.026;2023-03-14T15:58:35;99275.63;;;3.89;43.00
59272;BME280;45043;51.068;7.026;2023-03-14T16:01:36;99262.69;;;3.88;43.36
59272;BME280;45043;51.068;7.026;2023-03-14T16:04:36;99272.63;;;3.92;43.28
59272;BME280;45043;51.068;7.026;2023-03-14T16:07:37;99281.78;;;3.96;42.91
59272;BME280;45043;51.068;7.026;2023-03-14T16:10:38;99284.69;;;3.87;42.29
59272;BME280;45043;51.068;7.026;2023-03-14T16:13:38;99283.16;;;3.78;41.60
59272;BME280;45043;51.068;7.026;2023-03-14T16:16:39;99312.94;;;3.70;41.27
59272;BME280;45043;51.068;7.026;2023-03-14T16:19:39;99317.13;;;3.64;41.22
59272;BME280;45043;51.068;7.026;2023-03-14T16:22:40;99295.72;;;3.53;41.40
59272;BME280;45043;51.068;7.026;2023-03-14T16:25:40;99317.94;;;3.65;41.67
59272;BME280;45043;51.068;7.026;2023-03-14T16:28:44;99329.88;;;3.67;41.47
59272;BME280;45043;51.068;7.026;2023-03-14T16:31:45;99310.75;;;3.59;41.16
59272;BME280;45043;51.068;7.026;2023-03-14T16:34:45;99315.41;;;3.57;41.10
59272;BME280;45043;51.068;7.026;2023-03-14T16:37:46;99350.59;;;3.47;41.51
59272;BME280;45043;51.068;7.026;2023-03-14T16:40:56;99359.00;;;3.43;41.65
59272;BME280;45043;51.068;7.026;2023-03-14T16:43:58;99367.69;;;3.43;41.80
59272;BME280;45043;51.068;7.026;2023-03-14T16:46:58;99376.22;;;3.45;41.84
59272;BME280;45043;51.068;7.026;2023-03-14T16:49:59;99381.00;;;3.42;41.47
59272;BME280;45043;51.068;7.026;2023-03-14T16:53:02;99386.41;;;3.40;42.16
59272;BME280;45043;51.068;7.026;2023-03-14T16:56:02;99401.53;;;3.38;41.89
59272;BME280;45043;51.068;7.026;2023-03-14T16:59:02;99414.69;;;3.30;41.05
59272;BME280;45043;51.068;7.026;2023-03-14T17:02:03;99409.03;;;3.18;40.16
59272;BME280;45043;51.068;7.026;2023-03-14T17:05:04;99413.66;;;3.08;39.76
59272;BME280;45043;51.068;7.026;2023-03-14T17:08:04;99448.31;;;3.04;40.00
59272;BME280;45043;51.068;7.026;2023-03-14T17:11:05;99472.16;;;2.94;39.98